sensor_id;sensor_type;location;lat;lon;timestamp;P1;durP1;ratioP1;P2;durP2;ratioP2
47882;SDS011;37739;50.350;7.578;2023-03-04T00:01:45;68.93;;;37.07;;
47882;SDS011;37739;50.350;7.578;2023-03-04T00:04:14;70.50;;;36.00;;
47882;SDS011;37739;50.350;7.578;2023-03-04T00:06:40;66.53;;;33.30;;
47882;SDS011;37739;50.350;7.578;2023-03-04T00:09:08;59.80;;;34.60;;
47882;SDS011;37739;50.350;7.578;2023-03-04T00:11:38;66.27;;;34.87;;
47882;SDS011;37739;50.350;7.578;2023-03-04T00:14:03;66.50;;;34.57;;
47882;SDS011;37739;50.350;7.578;2023-03-04T00:16:28;65.80;;;34.00;;
47882;SDS011;37739;50.350;7.578;2023-03-04T00:18:56;62.00;;;35.90;;
47882;SDS011;37739;50.350;7.578;2023-03-04T00:21:26;63.93;;;33.80;;
47882;SDS011;37739;50.350;7.578;2023-03-04T00:23:54;54.60;;;30.03;;
47882;SDS011;37739;50.350;7.578;2023-03-04T00:26:20;60.87;;;33.73;;
47882;SDS011;37739;50.350;7.578;2023-03-04T00:28:47;62.23;;;32.27;;
47882;SDS011;37739;50.350;7.578;2023-03-04T00:31:15;62.77;;;31.37;;
47882;SDS011;37739;50.350;7.578;2023-03-04T00:33:45;61.97;;;32.23;;
47882;SDS011;37739;50.350;7.578;2023-03-04T00:36:10;50.80;;;29.37;;
47882;SDS011;37739;50.350;7.578;2023-03-04T00:38:36;57.47;;;31.57;;
47882;SDS011;37739;50.350;7.578;2023-03-04T00:41:03;56.63;;;30.67;;
47882;SDS011;37739;50.350;7.578;2023-03-04T00:43:31;51.60;;;27.47;;
47882;SDS011;37739;50.350;7.578;2023-03-04T00:45:56;60.90;;;31.27;;
47882;SDS011;37739;50.350;7.578;2023-03-04T00:48:22;63.73;;;33.50;;
47882;SDS011;37739;50.350;7.578;2023-03-04T00:50:47;50.67;;;29.40;;
47882;SDS011;37739;50.350;7.578;2023-03-04T00:53:13;48.97;;;28.23;;
47882;SDS011;37739;50.350;7.578;2023-03-04T00:55:38;48.40;;;28.37;;
47882;SDS011;37739;50.350;7.578;2023-03-04T00:58:04;48.03;;;28.03;;
47882;SDS011;37739;50.350;7.578;2023-03-04T01:00:31;55.83;;;31.50;;
47882;SDS011;37739;50.350;7.578;2023-03-04T01:02:57;57.40;;;32.63;;
47882;SDS011;37739;50.350;7.578;2023-03-04T01:05:22;54.87;;;31.07;;
47882;SDS011;37739;50.350;7.578;2023-03-04T01:07:50;57.13;;;30.40;;
47882;SDS011;37739;50.350;7.578;2023-03-04T01:10:15;59.37;;;31.77;;
47882;SDS011;37739;50.350;7.578;2023-03-04T01:12:41;52.97;;;29.93;;
47882;SDS011;37739;50.350;7.578;2023-03-04T01:15:09;53.43;;;29.27;;
47882;SDS011;37739;50.350;7.578;2023-03-04T01:17:36;52.60;;;29.63;;
47882;SDS011;37739;50.350;7.578;2023-03-04T01:20:04;51.20;;;28.57;;
47882;SDS011;37739;50.350;7.578;2023-03-04T01:22:30;55.57;;;27.70;;
47882;SDS011;37739;50.350;7.578;2023-03-04T01:24:56;54.07;;;29.60;;
47882;SDS011;37739;50.350;7.578;2023-03-04T01:27:22;54.70;;;29.57;;
47882;SDS011;37739;50.350;7.578;2023-03-04T01:29:47;57.77;;;31.43;;
47882;SDS011;37739;50.350;7.578;2023-03-04T01:32:12;44.33;;;24.80;;
47882;SDS011;37739;50.350;7.578;2023-03-04T01:34:38;58.83;;;28.90;;
47882;SDS011;37739;50.350;7.578;2023-03-04T01:37:06;55.83;;;29.77;;
47882;SDS011;37739;50.350;7.578;2023-03-04T01:39:37;57.40;;;30.83;;
47882;SDS011;37739;50.350;7.578;2023-03-04T01:42:02;56.03;;;28.20;;
47882;SDS011;37739;50.350;7.578;2023-03-04T01:44:30;52.07;;;27.50;;
47882;SDS011;37739;50.350;7.578;2023-03-04T01:46:56;42.07;;;27.07;;
47882;SDS011;37739;50.350;7.578;2023-03-04T01:49:24;51.63;;;28.00;;
47882;SDS011;37739;50.350;7.578;2023-03-04T01:51:53;53.47;;;27.93;;
47882;SDS011;37739;50.350;7.578;2023-03-04T01:54:21;46.60;;;27.57;;
47882;SDS011;37739;50.350;7.578;2023-03-04T01:56:52;48.13;;;28.37;;
47882;SDS011;37739;50.350;7.578;2023-03-04T01:59:22;57.20;;;30.77;;
47882;SDS011;37739;50.350;7.578;2023-03-04T02:01:54;50.07;;;28.13;;
47882;SDS011;37739;50.350;7.578;2023-03-04T02:04:23;50.63;;;27.57;;
47882;SDS011;37739;50.350;7.578;2023-03-04T02:06:54;53.00;;;29.53;;
47882;SDS011;37739;50.350;7.578;2023-03-04T02:09:24;55.30;;;28.57;;
47882;SDS011;37739;50.350;7.578;2023-03-04T02:11:52;48.93;;;27.33;;
47882;SDS011;37739;50.350;7.578;2023-03-04T02:14:18;51.73;;;27.87;;
47882;SDS011;37739;50.350;7.578;2023-03-04T02:16:44;48.93;;;26.73;;
47882;SDS011;37739;50.350;7.578;2023-03-04T02:22:16;49.27;;;26.90;;
47882;SDS011;37739;50.350;7.578;2023-03-04T02:24:44;48.20;;;25.93;;
47882;SDS011;37739;50.350;7.578;2023-03-04T02:27:18;51.93;;;27.53;;
47882;SDS011;37739;50.350;7.578;2023-03-04T02:29:44;47.27;;;26.80;;
47882;SDS011;37739;50.350;7.578;2023-03-04T02:32:10;55.60;;;30.30;;
47882;SDS011;37739;50.350;7.578;2023-03-04T02:34:43;49.00;;;29.00;;
47882;SDS011;37739;50.350;7.578;2023-03-04T02:37:11;52.53;;;27.03;;
47882;SDS011;37739;50.350;7.578;2023-03-04T02:39:40;48.07;;;26.10;;
47882;SDS011;37739;50.350;7.578;2023-03-04T02:42:07;40.37;;;23.63;;
47882;SDS011;37739;50.350;7.578;2023-03-04T02:44:34;55.57;;;28.17;;
47882;SDS011;37739;50.350;7.578;2023-03-04T02:47:05;45.27;;;24.60;;
47882;SDS011;37739;50.350;7.578;2023-03-04T02:49:32;49.50;;;27.90;;
47882;SDS011;37739;50.350;7.578;2023-03-04T02:52:01;53.20;;;28.37;;
47882;SDS011;37739;50.350;7.578;2023-03-04T02:54:27;51.63;;;27.50;;
47882;SDS011;37739;50.350;7.578;2023-03-04T02:56:56;37.07;;;21.80;;
47882;SDS011;37739;50.350;7.578;2023-03-04T02:59:25;50.57;;;27.70;;
47882;SDS011;37739;50.350;7.578;2023-03-04T03:01:56;51.80;;;28.30;;
47882;SDS011;37739;50.350;7.578;2023-03-04T03:04:23;48.27;;;29.23;;
47882;SDS011;37739;50.350;7.578;2023-03-04T03:06:52;50.40;;;26.97;;
47882;SDS011;37739;50.350;7.578;2023-03-04T03:09:18;50.50;;;29.00;;
47882;SDS011;37739;50.350;7.578;2023-03-04T03:11:46;48.00;;;26.07;;
47882;SDS011;37739;50.350;7.578;2023-03-04T03:14:13;49.87;;;27.30;;
47882;SDS011;37739;50.350;7.578;2023-03-04T03:16:39;45.37;;;26.50;;
47882;SDS011;37739;50.350;7.578;2023-03-04T03:19:09;48.50;;;28.17;;
47882;SDS011;37739;50.350;7.578;2023-03-04T03:21:37;52.20;;;28.30;;
47882;SDS011;37739;50.350;7.578;2023-03-04T03:24:02;47.23;;;24.37;;
47882;SDS011;37739;50.350;7.578;2023-03-04T03:26:30;50.30;;;28.87;;
47882;SDS011;37739;50.350;7.578;2023-03-04T03:28:55;52.73;;;29.67;;
47882;SDS011;37739;50.350;7.578;2023-03-04T03:31:21;50.73;;;28.07;;
47882;SDS011;37739;50.350;7.578;2023-03-04T03:33:48;50.13;;;26.43;;
47882;SDS011;37739;50.350;7.578;2023-03-04T03:36:16;47.47;;;27.10;;
47882;SDS011;37739;50.350;7.578;2023-03-04T03:38:41;55.60;;;30.00;;
47882;SDS011;37739;50.350;7.578;2023-03-04T03:41:09;53.73;;;27.93;;
47882;SDS011;37739;50.350;7.578;2023-03-04T03:43:36;51.90;;;28.90;;
47882;SDS011;37739;50.350;7.578;2023-03-04T03:46:01;57.07;;;29.50;;
47882;SDS011;37739;50.350;7.578;2023-03-04T03:48:27;45.33;;;25.70;;
47882;SDS011;37739;50.350;7.578;2023-03-04T03:50:52;48.63;;;27.37;;
47882;SDS011;37739;50.350;7.578;2023-03-04T03:53:17;53.47;;;29.17;;
47882;SDS011;37739;50.350;7.578;2023-03-04T03:55:43;48.97;;;27.70;;
47882;SDS011;37739;50.350;7.578;2023-03-04T03:58:08;41.47;;;23.70;;
47882;SDS011;37739;50.350;7.578;2023-03-04T04:00:33;46.97;;;25.67;;
47882;SDS011;37739;50.350;7.578;2023-03-04T04:03:01;47.70;;;26.60;;
47882;SDS011;37739;50.350;7.578;2023-03-04T04:05:29;49.63;;;27.57;;
47882;SDS011;37739;50.350;7.578;2023-03-04T04:07:54;46.50;;;26.20;;
47882;SDS011;37739;50.350;7.578;2023-03-04T04:10:20;51.77;;;28.67;;
47882;SDS011;37739;50.350;7.578;2023-03-04T04:12:47;51.80;;;28.87;;
47882;SDS011;37739;50.350;7.578;2023-03-04T04:15:13;49.90;;;27.50;;
47882;SDS011;37739;50.350;7.578;2023-03-04T04:17:38;48.63;;;27.40;;
47882;SDS011;37739;50.350;7.578;2023-03-04T04:20:05;41.93;;;23.10;;
47882;SDS011;37739;50.350;7.578;2023-03-04T04:22:34;38.63;;;21.77;;
47882;SDS011;37739;50.350;7.578;2023-03-04T04:24:59;49.97;;;27.13;;
47882;SDS011;37739;50.350;7.578;2023-03-04T04:27:24;53.00;;;27.43;;
47882;SDS011;37739;50.350;7.578;2023-03-04T04:29:50;48.20;;;26.07;;
47882;SDS011;37739;50.350;7.578;2023-03-04T04:32:17;48.60;;;27.57;;
47882;SDS011;37739;50.350;7.578;2023-03-04T04:34:44;52.03;;;30.93;;
47882;SDS011;37739;50.350;7.578;2023-03-04T04:37:12;42.07;;;25.00;;
47882;SDS011;37739;50.350;7.578;2023-03-04T04:39:37;54.77;;;29.47;;
47882;SDS011;37739;50.350;7.578;2023-03-04T04:42:05;44.53;;;26.80;;
47882;SDS011;37739;50.350;7.578;2023-03-04T04:44:32;49.17;;;27.20;;
47882;SDS011;37739;50.350;7.578;2023-03-04T04:47:02;47.17;;;27.30;;
47882;SDS011;37739;50.350;7.578;2023-03-04T04:49:31;46.67;;;26.50;;
47882;SDS011;37739;50.350;7.578;2023-03-04T04:51:59;41.10;;;24.40;;
47882;SDS011;37739;50.350;7.578;2023-03-04T04:54:24;54.20;;;26.27;;
47882;SDS011;37739;50.350;7.578;2023-03-04T04:56:52;47.70;;;27.40;;
47882;SDS011;37739;50.350;7.578;2023-03-04T04:59:17;45.33;;;25.50;;
47882;SDS011;37739;50.350;7.578;2023-03-04T05:01:45;47.60;;;26.90;;
47882;SDS011;37739;50.350;7.578;2023-03-04T05:04:11;38.63;;;23.83;;
47882;SDS011;37739;50.350;7.578;2023-03-04T05:06:36;44.67;;;25.30;;
47882;SDS011;37739;50.350;7.578;2023-03-04T05:09:01;48.40;;;26.30;;
47882;SDS011;37739;50.350;7.578;2023-03-04T05:11:28;47.27;;;27.37;;
47882;SDS011;37739;50.350;7.578;2023-03-04T05:13:53;47.07;;;26.70;;
47882;SDS011;37739;50.350;7.578;2023-03-04T05:16:21;45.50;;;25.60;;
47882;SDS011;37739;50.350;7.578;2023-03-04T05:18:49;46.23;;;23.93;;
47882;SDS011;37739;50.350;7.578;2023-03-04T05:21:14;38.40;;;22.00;;
47882;SDS011;37739;50.350;7.578;2023-03-04T05:23:40;41.70;;;24.93;;
47882;SDS011;37739;50.350;7.578;2023-03-04T05:26:07;36.40;;;21.80;;
47882;SDS011;37739;50.350;7.578;2023-03-04T05:28:34;36.43;;;21.10;;
47882;SDS011;37739;50.350;7.578;2023-03-04T05:31:05;42.30;;;24.47;;
47882;SDS011;37739;50.350;7.578;2023-03-04T05:33:30;37.70;;;23.17;;
47882;SDS011;37739;50.350;7.578;2023-03-04T05:35:58;36.87;;;21.60;;
47882;SDS011;37739;50.350;7.578;2023-03-04T05:38:26;36.03;;;20.50;;
47882;SDS011;37739;50.350;7.578;2023-03-04T05:41:10;34.57;;;21.77;;
47882;SDS011;37739;50.350;7.578;2023-03-04T05:43:38;43.87;;;25.00;;
47882;SDS011;37739;50.350;7.578;2023-03-04T05:46:09;34.40;;;22.20;;
47882;SDS011;37739;50.350;7.578;2023-03-04T05:48:38;41.50;;;24.30;;
47882;SDS011;37739;50.350;7.578;2023-03-04T05:51:05;28.17;;;18.00;;
47882;SDS011;37739;50.350;7.578;2023-03-04T05:53:33;34.20;;;21.10;;
47882;SDS011;37739;50.350;7.578;2023-03-04T05:56:08;32.73;;;19.97;;
47882;SDS011;37739;50.350;7.578;2023-03-04T05:58:39;28.23;;;16.93;;
47882;SDS011;37739;50.350;7.578;2023-03-04T06:01:05;34.63;;;21.17;;
47882;SDS011;37739;50.350;7.578;2023-03-04T06:03:30;34.97;;;21.87;;
47882;SDS011;37739;50.350;7.578;2023-03-04T06:05:56;41.67;;;23.77;;
47882;SDS011;37739;50.350;7.578;2023-03-04T06:08:21;36.47;;;22.27;;
47882;SDS011;37739;50.350;7.578;2023-03-04T06:10:46;34.70;;;20.43;;
47882;SDS011;37739;50.350;7.578;2023-03-04T06:13:14;37.20;;;20.63;;
47882;SDS011;37739;50.350;7.578;2023-03-04T06:15:42;32.73;;;19.13;;
47882;SDS011;37739;50.350;7.578;2023-03-04T06:18:07;34.47;;;21.90;;
47882;SDS011;37739;50.350;7.578;2023-03-04T06:20:33;42.87;;;23.30;;
47882;SDS011;37739;50.350;7.578;2023-03-04T06:22:58;42.03;;;23.87;;
47882;SDS011;37739;50.350;7.578;2023-03-04T06:25:23;41.10;;;22.70;;
47882;SDS011;37739;50.350;7.578;2023-03-04T06:27:52;37.13;;;21.43;;
47882;SDS011;37739;50.350;7.578;2023-03-04T06:30:20;36.40;;;20.53;;
47882;SDS011;37739;50.350;7.578;2023-03-04T06:32:50;28.27;;;16.90;;
47882;SDS011;37739;50.350;7.578;2023-03-04T06:35:21;35.10;;;21.63;;
47882;SDS011;37739;50.350;7.578;2023-03-04T06:37:46;29.83;;;17.97;;
47882;SDS011;37739;50.350;7.578;2023-03-04T06:40:14;36.73;;;21.53;;
47882;SDS011;37739;50.350;7.578;2023-03-04T06:42:42;33.57;;;21.73;;
47882;SDS011;37739;50.350;7.578;2023-03-04T06:45:09;35.30;;;22.47;;
47882;SDS011;37739;50.350;7.578;2023-03-04T06:47:35;37.33;;;21.80;;
47882;SDS011;37739;50.350;7.578;2023-03-04T06:50:01;33.20;;;20.40;;
47882;SDS011;37739;50.350;7.578;2023-03-04T06:52:31;29.33;;;17.50;;
47882;SDS011;37739;50.350;7.578;2023-03-04T06:54:57;37.03;;;22.17;;
47882;SDS011;37739;50.350;7.578;2023-03-04T06:57:24;38.60;;;20.93;;
47882;SDS011;37739;50.350;7.578;2023-03-04T06:59:50;35.07;;;21.20;;
47882;SDS011;37739;50.350;7.578;2023-03-04T07:02:15;34.27;;;20.00;;
47882;SDS011;37739;50.350;7.578;2023-03-04T07:04:40;37.53;;;21.57;;
47882;SDS011;37739;50.350;7.578;2023-03-04T07:07:08;34.67;;;20.50;;
47882;SDS011;37739;50.350;7.578;2023-03-04T07:09:34;37.53;;;22.33;;
47882;SDS011;37739;50.350;7.578;2023-03-04T07:12:02;32.73;;;19.10;;
47882;SDS011;37739;50.350;7.578;2023-03-04T07:14:30;37.97;;;21.50;;
47882;SDS011;37739;50.350;7.578;2023-03-04T07:16:56;30.43;;;20.03;;
47882;SDS011;37739;50.350;7.578;2023-03-04T07:19:21;38.00;;;21.13;;
47882;SDS011;37739;50.350;7.578;2023-03-04T07:21:49;30.47;;;16.90;;
47882;SDS011;37739;50.350;7.578;2023-03-04T07:24:15;39.37;;;26.73;;
47882;SDS011;37739;50.350;7.578;2023-03-04T07:26:40;40.03;;;23.93;;
47882;SDS011;37739;50.350;7.578;2023-03-04T07:29:05;34.80;;;21.00;;
47882;SDS011;37739;50.350;7.578;2023-03-04T07:31:35;32.17;;;18.07;;
47882;SDS011;37739;50.350;7.578;2023-03-04T07:34:02;36.47;;;18.37;;
47882;SDS011;37739;50.350;7.578;2023-03-04T07:36:35;30.10;;;17.43;;
47882;SDS011;37739;50.350;7.578;2023-03-04T07:39:03;32.63;;;19.87;;
47882;SDS011;37739;50.350;7.578;2023-03-04T07:41:30;32.37;;;19.80;;
47882;SDS011;37739;50.350;7.578;2023-03-04T07:43:57;33.33;;;21.10;;
47882;SDS011;37739;50.350;7.578;2023-03-04T07:46:25;30.47;;;17.50;;
47882;SDS011;37739;50.350;7.578;2023-03-04T07:48:50;35.60;;;22.13;;
47882;SDS011;37739;50.350;7.578;2023-03-04T07:51:17;28.27;;;15.50;;
47882;SDS011;37739;50.350;7.578;2023-03-04T07:53:46;29.60;;;17.60;;
47882;SDS011;37739;50.350;7.578;2023-03-04T07:56:14;35.53;;;21.83;;
47882;SDS011;37739;50.350;7.578;2023-03-04T07:58:42;34.90;;;19.30;;
47882;SDS011;37739;50.350;7.578;2023-03-04T08:01:11;27.53;;;18.00;;
47882;SDS011;37739;50.350;7.578;2023-03-04T08:03:41;24.50;;;16.30;;
47882;SDS011;37739;50.350;7.578;2023-03-04T08:06:09;31.17;;;18.07;;
47882;SDS011;37739;50.350;7.578;2023-03-04T08:08:37;26.10;;;14.73;;
47882;SDS011;37739;50.350;7.578;2023-03-04T08:11:03;29.87;;;17.70;;
47882;SDS011;37739;50.350;7.578;2023-03-04T08:13:33;29.00;;;18.37;;
47882;SDS011;37739;50.350;7.578;2023-03-04T08:16:02;22.77;;;14.80;;
47882;SDS011;37739;50.350;7.578;2023-03-04T08:18:28;23.87;;;15.57;;
47882;SDS011;37739;50.350;7.578;2023-03-04T08:20:53;22.40;;;14.73;;
47882;SDS011;37739;50.350;7.578;2023-03-04T08:23:19;27.87;;;15.20;;
47882;SDS011;37739;50.350;7.578;2023-03-04T08:25:44;27.20;;;13.67;;
47882;SDS011;37739;50.350;7.578;2023-03-04T08:28:10;24.77;;;14.37;;
47882;SDS011;37739;50.350;7.578;2023-03-04T08:30:38;20.37;;;12.60;;
47882;SDS011;37739;50.350;7.578;2023-03-04T08:33:04;22.57;;;14.83;;
47882;SDS011;37739;50.350;7.578;2023-03-04T08:35:30;20.80;;;13.80;;
47882;SDS011;37739;50.350;7.578;2023-03-04T08:37:57;23.60;;;13.50;;
47882;SDS011;37739;50.350;7.578;2023-03-04T08:40:23;25.23;;;14.20;;
47882;SDS011;37739;50.350;7.578;2023-03-04T08:42:50;23.90;;;14.27;;
47882;SDS011;37739;50.350;7.578;2023-03-04T08:45:16;27.97;;;17.67;;
47882;SDS011;37739;50.350;7.578;2023-03-04T08:47:41;29.00;;;18.07;;
47882;SDS011;37739;50.350;7.578;2023-03-04T08:50:09;28.00;;;17.43;;
47882;SDS011;37739;50.350;7.578;2023-03-04T08:52:35;25.93;;;17.30;;
47882;SDS011;37739;50.350;7.578;2023-03-04T08:55:03;26.87;;;15.60;;
47882;SDS011;37739;50.350;7.578;2023-03-04T08:57:28;29.90;;;17.80;;
47882;SDS011;37739;50.350;7.578;2023-03-04T08:59:53;28.07;;;17.47;;
47882;SDS011;37739;50.350;7.578;2023-03-04T09:02:21;28.50;;;17.87;;
47882;SDS011;37739;50.350;7.578;2023-03-04T09:04:46;27.90;;;17.87;;
47882;SDS011;37739;50.350;7.578;2023-03-04T09:07:12;26.43;;;16.53;;
47882;SDS011;37739;50.350;7.578;2023-03-04T09:09:38;24.57;;;15.23;;
47882;SDS011;37739;50.350;7.578;2023-03-04T09:12:03;26.13;;;17.03;;
47882;SDS011;37739;50.350;7.578;2023-03-04T09:14:29;25.60;;;15.83;;
47882;SDS011;37739;50.350;7.578;2023-03-04T09:16:54;26.23;;;16.67;;
47882;SDS011;37739;50.350;7.578;2023-03-04T09:19:22;30.93;;;19.00;;
47882;SDS011;37739;50.350;7.578;2023-03-04T09:21:48;28.20;;;16.50;;
47882;SDS011;37739;50.350;7.578;2023-03-04T09:24:13;28.10;;;17.13;;
47882;SDS011;37739;50.350;7.578;2023-03-04T09:26:39;30.23;;;19.00;;
47882;SDS011;37739;50.350;7.578;2023-03-04T09:29:04;27.53;;;17.10;;
47882;SDS011;37739;50.350;7.578;2023-03-04T09:31:30;29.90;;;18.00;;
47882;SDS011;37739;50.350;7.578;2023-03-04T09:33:58;26.90;;;15.53;;
47882;SDS011;37739;50.350;7.578;2023-03-04T09:36:24;29.47;;;16.23;;
47882;SDS011;37739;50.350;7.578;2023-03-04T09:38:49;26.73;;;17.07;;
47882;SDS011;37739;50.350;7.578;2023-03-04T09:41:20;26.13;;;16.60;;
47882;SDS011;37739;50.350;7.578;2023-03-04T09:43:48;30.83;;;15.70;;
47882;SDS011;37739;50.350;7.578;2023-03-04T09:46:16;26.83;;;13.90;;
47882;SDS011;37739;50.350;7.578;2023-03-04T09:48:48;24.23;;;12.23;;
47882;SDS011;37739;50.350;7.578;2023-03-04T09:56:38;25.97;;;14.60;;
47882;SDS011;37739;50.350;7.578;2023-03-04T09:59:08;23.40;;;13.83;;
47882;SDS011;37739;50.350;7.578;2023-03-04T10:06:59;20.20;;;11.63;;
47882;SDS011;37739;50.350;7.578;2023-03-04T10:09:27;17.40;;;11.07;;
47882;SDS011;37739;50.350;7.578;2023-03-04T10:12:14;21.00;;;10.67;;
47882;SDS011;37739;50.350;7.578;2023-03-04T10:14:44;13.27;;;8.87;;
47882;SDS011;37739;50.350;7.578;2023-03-04T10:25:04;13.47;;;7.97;;
47882;SDS011;37739;50.350;7.578;2023-03-04T10:27:42;19.77;;;11.67;;
47882;SDS011;37739;50.350;7.578;2023-03-04T10:33:13;17.60;;;10.10;;
47882;SDS011;37739;50.350;7.578;2023-03-04T10:35:45;17.53;;;9.63;;
47882;SDS011;37739;50.350;7.578;2023-03-04T10:38:14;18.07;;;10.43;;
47882;SDS011;37739;50.350;7.578;2023-03-04T10:40:44;18.33;;;9.10;;
47882;SDS011;37739;50.350;7.578;2023-03-04T10:43:20;16.33;;;9.47;;
47882;SDS011;37739;50.350;7.578;2023-03-04T10:45:46;16.60;;;10.00;;
47882;SDS011;37739;50.350;7.578;2023-03-04T10:48:20;12.23;;;7.93;;
47882;SDS011;37739;50.350;7.578;2023-03-04T10:50:53;17.13;;;8.90;;
47882;SDS011;37739;50.350;7.578;2023-03-04T10:53:29;16.90;;;8.87;;
47882;SDS011;37739;50.350;7.578;2023-03-04T10:56:00;18.33;;;9.53;;
47882;SDS011;37739;50.350;7.578;2023-03-04T10:58:26;13.87;;;7.97;;
47882;SDS011;37739;50.350;7.578;2023-03-04T11:00:59;15.60;;;8.77;;
47882;SDS011;37739;50.350;7.578;2023-03-04T11:03:33;16.47;;;8.50;;
47882;SDS011;37739;50.350;7.578;2023-03-04T11:06:08;13.57;;;8.33;;
47882;SDS011;37739;50.350;7.578;2023-03-04T11:08:38;11.80;;;8.10;;
47882;SDS011;37739;50.350;7.578;2023-03-04T11:11:09;15.10;;;7.30;;
47882;SDS011;37739;50.350;7.578;2023-03-04T11:13:49;10.27;;;7.60;;
47882;SDS011;37739;50.350;7.578;2023-03-04T11:16:28;16.43;;;8.17;;
47882;SDS011;37739;50.350;7.578;2023-03-04T11:19:20;13.20;;;8.13;;
47882;SDS011;37739;50.350;7.578;2023-03-04T11:21:45;16.30;;;9.27;;
47882;SDS011;37739;50.350;7.578;2023-03-04T11:24:16;10.37;;;7.70;;
47882;SDS011;37739;50.350;7.578;2023-03-04T11:29:52;13.10;;;9.37;;
47882;SDS011;37739;50.350;7.578;2023-03-04T11:32:24;15.93;;;8.47;;
47882;SDS011;37739;50.350;7.578;2023-03-04T11:37:43;13.87;;;8.00;;
47882;SDS011;37739;50.350;7.578;2023-03-04T11:40:22;13.90;;;8.30;;
47882;SDS011;37739;50.350;7.578;2023-03-04T11:42:58;10.33;;;6.93;;
47882;SDS011;37739;50.350;7.578;2023-03-04T11:45:33;11.77;;;8.63;;
47882;SDS011;37739;50.350;7.578;2023-03-04T12:02:04;12.53;;;6.57;;
47882;SDS011;37739;50.350;7.578;2023-03-04T12:29:28;9.77;;;5.40;;
47882;SDS011;37739;50.350;7.578;2023-03-04T12:35:17;6.90;;;4.30;;
47882;SDS011;37739;50.350;7.578;2023-03-04T12:40:35;9.87;;;6.13;;
47882;SDS011;37739;50.350;7.578;2023-03-04T12:43:07;9.13;;;6.00;;
47882;SDS011;37739;50.350;7.578;2023-03-04T12:48:34;8.30;;;5.30;;
47882;SDS011;37739;50.350;7.578;2023-03-04T12:56:48;9.17;;;5.90;;
47882;SDS011;37739;50.350;7.578;2023-03-04T12:59:28;8.10;;;6.37;;
47882;SDS011;37739;50.350;7.578;2023-03-04T13:08:07;7.77;;;5.13;;
47882;SDS011;37739;50.350;7.578;2023-03-04T13:10:40;6.43;;;5.50;;
47882;SDS011;37739;50.350;7.578;2023-03-04T13:13:31;6.93;;;6.23;;
47882;SDS011;37739;50.350;7.578;2023-03-04T13:16:04;5.70;;;5.03;;
47882;SDS011;37739;50.350;7.578;2023-03-04T13:18:35;6.30;;;5.63;;
47882;SDS011;37739;50.350;7.578;2023-03-04T13:21:15;6.73;;;5.33;;
47882;SDS011;37739;50.350;7.578;2023-03-04T13:23:46;6.33;;;4.40;;
47882;SDS011;37739;50.350;7.578;2023-03-04T13:26:27;5.90;;;5.03;;
47882;SDS011;37739;50.350;7.578;2023-03-04T13:29:55;6.07;;;4.70;;
47882;SDS011;37739;50.350;7.578;2023-03-04T13:32:00;7.17;;;5.70;;
47882;SDS011;37739;50.350;7.578;2023-03-04T13:37:25;11.93;;;9.67;;
47882;SDS011;37739;50.350;7.578;2023-03-04T13:42:47;9.57;;;8.20;;
47882;SDS011;37739;50.350;7.578;2023-03-04T13:47:59;12.33;;;9.03;;
47882;SDS011;37739;50.350;7.578;2023-03-04T13:50:40;18.93;;;11.90;;
47882;SDS011;37739;50.350;7.578;2023-03-04T13:53:20;11.83;;;8.77;;
47882;SDS011;37739;50.350;7.578;2023-03-04T13:58:45;5.63;;;5.07;;
47882;SDS011;37739;50.350;7.578;2023-03-04T14:01:25;5.60;;;4.30;;
47882;SDS011;37739;50.350;7.578;2023-03-04T14:03:55;5.47;;;4.10;;
47882;SDS011;37739;50.350;7.578;2023-03-04T14:06:25;6.90;;;4.30;;
47882;SDS011;37739;50.350;7.578;2023-03-04T14:08:53;8.37;;;5.83;;
47882;SDS011;37739;50.350;7.578;2023-03-04T14:11:24;6.03;;;5.10;;
47882;SDS011;37739;50.350;7.578;2023-03-04T14:13:56;7.43;;;5.83;;
47882;SDS011;37739;50.350;7.578;2023-03-04T14:16:24;7.50;;;5.57;;
47882;SDS011;37739;50.350;7.578;2023-03-04T14:19:03;5.97;;;4.93;;
47882;SDS011;37739;50.350;7.578;2023-03-04T14:21:32;4.20;;;3.80;;
47882;SDS011;37739;50.350;7.578;2023-03-04T14:26:30;6.13;;;4.87;;
47882;SDS011;37739;50.350;7.578;2023-03-04T14:28:59;7.60;;;5.83;;
47882;SDS011;37739;50.350;7.578;2023-03-04T14:31:27;7.70;;;5.63;;
47882;SDS011;37739;50.350;7.578;2023-03-04T14:33:55;9.70;;;6.17;;
47882;SDS011;37739;50.350;7.578;2023-03-04T14:36:29;9.67;;;5.67;;
47882;SDS011;37739;50.350;7.578;2023-03-04T14:39:02;5.33;;;4.70;;
47882;SDS011;37739;50.350;7.578;2023-03-04T14:41:35;8.47;;;6.17;;
47882;SDS011;37739;50.350;7.578;2023-03-04T14:47:22;6.93;;;5.87;;
47882;SDS011;37739;50.350;7.578;2023-03-04T14:50:00;8.40;;;6.20;;
47882;SDS011;37739;50.350;7.578;2023-03-04T14:57:40;5.80;;;5.20;;
47882;SDS011;37739;50.350;7.578;2023-03-04T15:02:42;9.00;;;6.40;;
47882;SDS011;37739;50.350;7.578;2023-03-04T15:07:54;8.33;;;4.73;;
47882;SDS011;37739;50.350;7.578;2023-03-04T15:10:25;6.43;;;5.50;;
47882;SDS011;37739;50.350;7.578;2023-03-04T15:12:56;6.13;;;4.50;;
47882;SDS011;37739;50.350;7.578;2023-03-04T15:15:31;5.03;;;4.50;;
47882;SDS011;37739;50.350;7.578;2023-03-04T15:23:18;5.27;;;3.80;;
47882;SDS011;37739;50.350;7.578;2023-03-04T15:25:43;8.93;;;5.30;;
47882;SDS011;37739;50.350;7.578;2023-03-04T15:28:11;6.70;;;5.50;;
47882;SDS011;37739;50.350;7.578;2023-03-04T15:30:41;6.20;;;4.70;;
47882;SDS011;37739;50.350;7.578;2023-03-04T15:33:10;5.93;;;3.60;;
47882;SDS011;37739;50.350;7.578;2023-03-04T15:35:38;4.20;;;3.40;;
47882;SDS011;37739;50.350;7.578;2023-03-04T15:38:10;5.60;;;3.37;;
47882;SDS011;37739;50.350;7.578;2023-03-04T15:40:38;4.30;;;3.17;;
47882;SDS011;37739;50.350;7.578;2023-03-04T15:43:09;6.60;;;3.50;;
47882;SDS011;37739;50.350;7.578;2023-03-04T15:45:40;6.63;;;3.60;;
47882;SDS011;37739;50.350;7.578;2023-03-04T15:48:06;4.60;;;3.40;;
47882;SDS011;37739;50.350;7.578;2023-03-04T15:50:37;5.90;;;4.40;;
47882;SDS011;37739;50.350;7.578;2023-03-04T15:53:07;5.87;;;3.80;;
47882;SDS011;37739;50.350;7.578;2023-03-04T15:55:40;6.13;;;5.00;;
47882;SDS011;37739;50.350;7.578;2023-03-04T15:58:08;4.40;;;4.00;;
47882;SDS011;37739;50.350;7.578;2023-03-04T16:00:35;5.37;;;4.87;;
47882;SDS011;37739;50.350;7.578;2023-03-04T16:03:01;5.97;;;5.40;;
47882;SDS011;37739;50.350;7.578;2023-03-04T16:05:37;9.10;;;7.50;;
47882;SDS011;37739;50.350;7.578;2023-03-04T16:08:03;6.70;;;4.60;;
47882;SDS011;37739;50.350;7.578;2023-03-04T16:10:30;7.60;;;4.70;;
47882;SDS011;37739;50.350;7.578;2023-03-04T16:12:56;8.27;;;5.60;;
47882;SDS011;37739;50.350;7.578;2023-03-04T16:15:23;9.00;;;6.90;;
47882;SDS011;37739;50.350;7.578;2023-03-04T16:17:50;4.10;;;3.27;;
47882;SDS011;37739;50.350;7.578;2023-03-04T16:20:17;3.63;;;3.17;;
47882;SDS011;37739;50.350;7.578;2023-03-04T16:22:55;3.93;;;2.83;;
47882;SDS011;37739;50.350;7.578;2023-03-04T16:25:23;5.07;;;3.30;;
47882;SDS011;37739;50.350;7.578;2023-03-04T16:27:49;3.83;;;3.53;;
47882;SDS011;37739;50.350;7.578;2023-03-04T16:30:17;4.43;;;3.10;;
47882;SDS011;37739;50.350;7.578;2023-03-04T16:32:48;3.97;;;2.60;;
47882;SDS011;37739;50.350;7.578;2023-03-04T16:35:16;3.87;;;3.00;;
47882;SDS011;37739;50.350;7.578;2023-03-04T16:37:42;3.57;;;2.93;;
47882;SDS011;37739;50.350;7.578;2023-03-04T16:40:10;4.10;;;3.20;;